Cherry Lane, North Carolina
Current Conditions -  °F | °C
As of 6:15 PM on Wednesday 22 Oct 2014 (Local Time) from KUKF Reporting Station
Clear Clear  
Wind Chill: 52°   Ceiling: Unl
Heat Index: 52°   Visibility: 10mi
Dew Point: 36°   Wind: 13mph
Humidity: 54%   Direction: 340°NNW
Pressure: 30.15"   Gusts: 22mph
Location:  36.4437°N, 81.0178°W
Report Text: KUKF 222215Z AUTO 34011G19KT 10SM CLR 11/02 A3015 RMK AO2
Loading
Personal Weather Stations






























Interactive Weather Map
Tropical Storm Tracking
New forecast layout! Learn more

10-Day Weather Forecast

Advertisements
Track Severe Weather on mobile